Pulcifer, Wisconsin
Current Conditions -  °F | °C
As of 5:55 AM on Monday 24 Nov 2014 (Local Time) from KEZS Reporting Station
Overcast Overcast  
Wind Chill: 42°   Ceiling: 1300
Heat Index: 42°   Visibility: 7mi
Dew Point: 41°   Wind: 0mph
Humidity: 95%   Direction: NA
Pressure: 29.02"   Gusts: NA
Location:  44.9109°N, 88.3543°W
Report Text: KEZS 241155Z AUTO 00000KT 7SM BKN013 OVC019 06/05 A2902 RMK AO2 60008 70024 T00570050 10058 20048
Loading
Personal Weather Stations






























Interactive Weather Map New forecast layout! Learn more

10-Day Weather Forecast

Advertisements
Track Severe Weather on mobile